Time;durP1;ratioP1;P1;durP2;ratioP2;P2;SDS_P1;SDS_P2;PMS_P1;PMS_P2;Temp;Humidity;BMP_temperature;BMP_pressure;BME280_temperature;BME280_humidity;BME280_pressure;Samples;Min_cycle;Max_cycle;Signal;HPM_P1;HPM_P2
2021/11/25 00:02:16;;;;;;;7.70;4.15;;;;;;;5.84;100.00;100541.22;5205759;28;20400;-78
2021/11/25 00:04:46;;;;;;;7.03;3.53;;;;;;;5.90;100.00;100541.13;5207328;28;20033;-77
2021/11/25 00:07:17;;;;;;;6.15;3.30;;;;;;;5.91;100.00;100545.41;5201653;28;20029;-77
2021/11/25 00:09:47;;;;;;;8.68;3.83;;;;;;;5.95;100.00;100547.91;5197255;28;20048;-77
2021/11/25 00:12:18;;;;;;;6.88;3.63;;;;;;;5.90;100.00;100551.50;5204228;28;20163;-77
2021/11/25 00:14:48;;;;;;;6.35;3.20;;;;;;;5.85;100.00;100545.50;5206942;28;20577;-77
2021/11/25 00:17:19;;;;;;;5.93;3.65;;;;;;;5.96;100.00;100541.00;5190654;28;20029;-78
2021/11/25 00:19:49;;;;;;;7.57;3.83;;;;;;;5.88;100.00;100538.53;5207685;28;20022;-76
2021/11/25 00:22:20;;;;;;;6.53;3.60;;;;;;;5.81;100.00;100536.06;5205114;28;20041;-78
2021/11/25 00:24:50;;;;;;;6.35;3.70;;;;;;;5.84;100.00;100521.34;5202743;28;20121;-78
2021/11/25 00:27:20;;;;;;;5.93;3.60;;;;;;;5.78;100.00;100525.72;5209269;28;20049;-77
2021/11/25 00:29:51;;;;;;;5.93;3.45;;;;;;;5.78;100.00;100525.72;5201816;28;20029;-77
2021/11/25 00:32:22;;;;;;;8.35;4.05;;;;;;;5.77;100.00;100519.69;5208490;28;20033;-77
2021/11/25 00:34:52;;;;;;;7.97;4.13;;;;;;;5.82;100.00;100515.31;5204699;28;20517;-77
2021/11/25 00:37:23;;;;;;;7.78;3.90;;;;;;;5.91;100.00;100507.38;5195588;28;20088;-77
2021/11/25 00:39:53;;;;;;;7.25;3.90;;;;;;;5.88;100.00;100501.41;5198244;28;20037;-77
2021/11/25 00:42:24;;;;;;;7.20;4.03;;;;;;;5.93;100.00;100490.03;5197571;28;20017;-77
2021/11/25 00:44:54;;;;;;;6.78;3.90;;;;;;;6.00;100.00;100498.56;5207934;28;20059;-77
2021/11/25 00:47:24;;;;;;;8.60;4.32;;;;;;;5.91;100.00;100496.16;5190315;28;20021;-77
2021/11/25 00:49:55;;;;;;;7.82;4.22;;;;;;;5.86;100.00;100478.06;5203832;28;20053;-76
2021/11/25 00:52:26;;;;;;;7.57;4.03;;;;;;;5.80;100.00;100474.72;5202738;28;20022;-77
2021/11/25 00:54:57;;;;;;;9.45;4.30;;;;;;;5.84;100.00;100485.03;5187614;28;20026;-77
2021/11/25 00:57:27;;;;;;;8.10;4.72;;;;;;;5.85;100.00;100472.91;5189177;28;20029;-76
2021/11/25 00:59:57;;;;;;;7.60;4.55;;;;;;;5.88;100.00;100457.31;5187107;28;20030;-77
2021/11/25 01:02:28;;;;;;;8.27;4.10;;;;;;;5.96;100.00;100466.66;5189119;28;20040;-77
2021/11/25 01:04:58;;;;;;;9.30;4.40;;;;;;;5.98;100.00;100462.28;5188438;28;20028;-77
2021/11/25 01:07:28;;;;;;;7.90;4.53;;;;;;;5.95;100.00;100462.31;5181500;28;20051;-77
2021/11/25 01:10:00;;;;;;;7.28;4.10;;;;;;;5.92;100.00;100459.78;5188849;28;20061;-77
2021/11/25 01:12:31;;;;;;;7.32;4.05;;;;;;;5.79;100.00;100454.88;5189852;28;20040;-77
2021/11/25 01:15:03;;;;;;;8.50;4.47;;;;;;;5.79;100.00;100453.16;5188987;28;20022;-77
2021/11/25 01:17:39;;;;;;;7.78;4.20;;;;;;;5.70;100.00;100444.63;5188879;28;20029;-77
2021/11/25 01:20:15;;;;;;;8.32;4.30;;;;;;;5.65;100.00;100446.44;5189843;28;20538;-77
2021/11/25 01:22:45;;;;;;;10.48;4.38;;;;;;;5.70;100.00;100450.69;5186981;28;20040;-77
2021/11/25 01:25:15;;;;;;;8.15;4.47;;;;;;;5.74;100.00;100446.31;5189243;28;20089;-77
2021/11/25 01:27:46;;;;;;;7.28;4.25;;;;;;;5.80;100.00;100436.72;5194917;28;20033;-77
2021/11/25 01:30:17;;;;;;;9.45;4.88;;;;;;;5.70;100.00;100437.72;5188588;28;20027;-78
2021/11/25 01:32:48;;;;;;;7.47;4.50;;;;;;;5.74;100.00;100421.22;5188778;28;20034;-77
2021/11/25 01:35:18;;;;;;;7.65;5.03;;;;;;;5.81;100.00;100419.41;5189694;28;20038;-77
2021/11/25 01:37:50;;;;;;;9.30;4.75;;;;;;;5.86;100.00;100420.16;5189533;28;20109;-77
2021/11/25 01:40:21;;;;;;;8.80;4.90;;;;;;;5.83;100.00;100417.63;5191267;28;20025;-77
2021/11/25 01:42:51;;;;;;;9.77;4.97;;;;;;;5.76;100.00;100421.19;5198291;28;20157;-76
2021/11/25 01:45:24;;;;;;;7.13;4.20;;;;;;;5.85;100.00;100415.84;5197573;28;20402;-77
2021/11/25 01:47:55;;;;;;;8.85;4.95;;;;;;;5.90;100.00;100419.25;5187484;28;20049;-77
2021/11/25 01:50:28;;;;;;;9.05;5.05;;;;;;;5.96;100.00;100416.50;5196252;28;20025;-77
2021/11/25 01:52:59;;;;;;;8.98;4.88;;;;;;;5.95;100.00;100414.81;5200751;28;20029;-77
2021/11/25 01:55:30;;;;;;;7.28;4.22;;;;;;;5.86;100.00;100404.59;5199307;28;20029;-77
2021/11/25 01:58:00;;;;;;;8.95;4.60;;;;;;;5.75;100.00;100399.59;5195764;28;20514;-77
2021/11/25 02:00:43;;;;;;;8.23;4.57;;;;;;;5.80;100.00;100400.41;5198898;28;20080;-78
2021/11/25 02:03:15;;;;;;;9.48;4.63;;;;;;;5.82;100.00;100395.19;5193481;28;20030;-76
2021/11/25 02:05:46;;;;;;;9.27;5.20;;;;;;;5.66;100.00;100402.38;5197146;28;20100;-77
2021/11/25 02:08:16;;;;;;;9.10;5.05;;;;;;;5.61;100.00;100390.38;5186630;28;20539;-76
2021/11/25 02:10:49;;;;;;;9.57;4.55;;;;;;;5.53;100.00;100382.75;5189700;28;20288;-77
2021/11/25 02:13:21;;;;;;;7.97;4.82;;;;;;;5.54;100.00;100379.25;5196251;28;20511;-77
2021/11/25 02:15:52;;;;;;;9.40;4.68;;;;;;;5.61;100.00;100383.44;5193365;28;20480;-76
2021/11/25 02:18:24;;;;;;;8.10;5.00;;;;;;;5.70;100.00;100372.03;5191342;28;20040;-77
2021/11/25 02:20:58;;;;;;;8.57;5.00;;;;;;;5.61;100.00;100374.81;5197678;28;20038;-76
2021/11/25 02:23:29;;;;;;;9.25;4.55;;;;;;;5.68;100.00;100371.22;5194784;28;20040;-77
2021/11/25 02:26:00;;;;;;;9.38;5.03;;;;;;;5.55;100.00;100367.16;5198699;28;20029;-77
2021/11/25 02:28:34;;;;;;;9.10;5.55;;;;;;;5.55;100.00;100365.41;5198037;28;20138;-77
2021/11/25 02:31:05;;;;;;;10.20;5.63;;;;;;;5.63;100.00;100367.88;5191749;28;20022;-77
2021/11/25 02:33:41;;;;;;;8.95;5.10;;;;;;;5.66;100.00;100360.91;5198710;28;20035;-77
2021/11/25 02:36:12;;;;;;;8.35;5.00;;;;;;;5.62;100.00;100359.25;5196170;28;20030;-77
2021/11/25 02:38:43;;;;;;;8.30;4.90;;;;;;;5.66;100.00;100362.63;5188974;28;20030;-78
2021/11/25 02:41:13;;;;;;;10.63;5.30;;;;;;;5.62;100.00;100353.19;5193488;28;20018;-78
2021/11/25 02:43:44;;;;;;;9.10;4.88;;;;;;;5.65;100.00;100359.19;5195682;28;20683;-78
2021/11/25 02:46:14;;;;;;;8.68;4.95;;;;;;;5.62;100.00;100353.19;5192229;28;20033;-76
2021/11/25 02:48:50;;;;;;;8.65;5.40;;;;;;;5.59;100.00;100350.69;5187095;28;20113;-77
2021/11/25 02:51:31;;;;;;;6.93;4.60;;;;;;;5.65;100.00;100335.88;5195943;28;20037;-77
2021/11/25 02:54:02;;;;;;;8.15;4.90;;;;;;;5.67;100.00;100344.47;5197280;28;20108;-78
2021/11/25 02:56:33;;;;;;;8.55;4.80;;;;;;;5.64;100.00;100349.72;5193636;28;20033;-77
2021/11/25 02:59:03;;;;;;;8.60;4.72;;;;;;;5.67;100.00;100339.28;5190599;28;20105;-77
2021/11/25 03:01:36;;;;;;;8.82;4.95;;;;;;;5.74;100.00;100334.81;5202896;28;20040;-78
2021/11/25 03:04:08;;;;;;;8.23;4.47;;;;;;;5.74;100.00;100332.22;5199302;28;20474;-78
2021/11/25 03:06:38;;;;;;;6.75;4.10;;;;;;;5.72;100.00;100332.25;5200727;28;20034;-78
2021/11/25 03:09:09;;;;;;;7.45;4.68;;;;;;;5.58;100.00;100331.66;5198123;28;20033;-78
2021/11/25 03:11:39;;;;;;;7.97;4.55;;;;;;;5.65;100.00;100333.28;5202897;28;20403;-77
2021/11/25 03:14:10;;;;;;;7.38;4.30;;;;;;;5.80;100.00;100329.53;5200321;28;20033;-78
2021/11/25 03:16:40;;;;;;;7.85;4.35;;;;;;;5.76;100.00;100328.72;5196080;28;20033;-78
2021/11/25 03:19:12;;;;;;;7.72;4.53;;;;;;;5.58;100.00;100323.88;5196564;28;20053;-78
2021/11/25 03:21:42;;;;;;;9.52;4.50;;;;;;;5.59;100.00;100323.00;5197706;28;20025;-77
2021/11/25 03:24:13;;;;;;;7.70;4.80;;;;;;;5.57;100.00;100314.41;5202590;28;20033;-77
2021/11/25 03:26:43;;;;;;;8.65;4.60;;;;;;;5.65;100.00;100315.13;5201572;28;20028;-78
2021/11/25 03:29:14;;;;;;;9.05;4.47;;;;;;;5.78;100.00;100308.81;5203039;28;20076;-78
2021/11/25 03:31:44;;;;;;;7.78;4.40;;;;;;;5.62;100.00;100304.81;5200972;28;20048;-78
2021/11/25 03:34:15;;;;;;;7.75;4.70;;;;;;;5.57;100.00;100316.16;5201253;28;20037;-78
2021/11/25 03:36:45;;;;;;;7.55;4.50;;;;;;;5.55;100.00;100310.16;5200944;28;20033;-78
2021/11/25 03:39:16;;;;;;;6.90;4.40;;;;;;;5.60;100.00;100310.91;5197716;28;20030;-78
2021/11/25 03:41:46;;;;;;;8.82;5.20;;;;;;;5.52;100.00;100310.19;5204116;28;20410;-78
2021/11/25 03:44:16;;;;;;;7.53;4.72;;;;;;;5.55;100.00;100305.81;5201301;28;20089;-78
2021/11/25 03:46:47;;;;;;;8.93;4.68;;;;;;;5.57;100.00;100303.19;5195405;28;20022;-78
2021/11/25 03:49:17;;;;;;;8.75;5.13;;;;;;;5.59;100.00;100307.44;5194277;28;20064;-77
2021/11/25 03:51:48;;;;;;;7.18;4.65;;;;;;;5.64;100.00;100297.00;5201928;28;20030;-77
2021/11/25 03:54:18;;;;;;;7.05;4.38;;;;;;;5.70;100.00;100299.44;5199494;28;20171;-78
2021/11/25 03:56:48;;;;;;;7.35;4.78;;;;;;;5.58;100.00;100289.34;5199647;28;20052;-77
2021/11/25 03:59:19;;;;;;;6.53;4.30;;;;;;;5.41;100.00;100288.84;5201160;28;20035;-78
2021/11/25 04:01:49;;;;;;;7.80;4.47;;;;;;;5.48;100.00;100287.81;5200577;28;20069;-78
2021/11/25 04:04:19;;;;;;;7.60;4.85;;;;;;;5.72;100.00;100289.94;5201071;28;20025;-77
2021/11/25 04:06:50;;;;;;;7.72;4.53;;;;;;;5.69;100.00;100288.25;5200180;28;20037;-77
2021/11/25 04:09:20;;;;;;;8.07;4.70;;;;;;;5.83;100.00;100288.84;5198908;28;20136;-79
2021/11/25 04:11:51;;;;;;;7.55;4.47;;;;;;;5.75;100.00;100293.28;5199789;28;20411;-78
2021/11/25 04:14:21;;;;;;;9.52;5.03;;;;;;;5.72;100.00;100290.78;5201061;28;20377;-78
2021/11/25 04:16:51;;;;;;;8.43;4.88;;;;;;;5.75;100.00;100282.09;5193639;28;20026;-78
2021/11/25 04:19:22;;;;;;;7.20;4.68;;;;;;;5.75;100.00;100272.56;5196222;28;20029;-78
2021/11/25 04:21:53;;;;;;;7.80;4.63;;;;;;;5.76;100.00;100271.66;5199724;28;20072;-78
2021/11/25 04:24:23;;;;;;;7.00;4.53;;;;;;;5.79;100.00;100268.22;5202541;28;20043;-78
2021/11/25 04:26:54;;;;;;;7.63;4.82;;;;;;;5.75;100.00;100261.34;5200295;28;20531;-77
2021/11/25 04:29:25;;;;;;;8.70;5.47;;;;;;;5.71;100.00;100254.53;5200550;28;20029;-78
2021/11/25 04:37:52;;;;;;;7.38;4.28;;;;;;;5.61;100.00;100243.47;5199126;28;20053;-78
2021/11/25 04:40:22;;;;;;;8.43;4.20;;;;;;;5.45;100.00;100241.25;5203396;28;20037;-78
2021/11/25 04:42:53;;;;;;;7.35;4.90;;;;;;;5.42;100.00;100231.78;5203348;28;20313;-77
2021/11/25 04:45:23;;;;;;;6.90;4.13;;;;;;;5.44;100.00;100231.78;5202257;28;20048;-78
2021/11/25 04:47:54;;;;;;;8.57;4.82;;;;;;;5.43;100.00;100230.06;5194472;28;20426;-77
2021/11/25 04:50:24;;;;;;;8.07;4.68;;;;;;;5.50;100.00;100222.13;5201582;28;20566;-78
2021/11/25 04:52:54;;;;;;;7.72;4.55;;;;;;;5.45;100.00;100225.69;5205809;28;20083;-78
2021/11/25 04:55:25;;;;;;;7.78;4.93;;;;;;;5.52;100.00;100222.09;5203305;28;20105;-78
2021/11/25 04:57:55;;;;;;;7.72;4.72;;;;;;;5.49;100.00;100227.34;5204386;28;20018;-78
2021/11/25 05:00:26;;;;;;;9.25;4.80;;;;;;;5.51;100.00;100223.84;5203420;28;20033;-78
2021/11/25 05:02:56;;;;;;;8.48;4.75;;;;;;;5.44;100.00;100224.00;5205370;28;20033;-77
2021/11/25 05:05:27;;;;;;;8.57;5.43;;;;;;;5.46;100.00;100224.81;5200172;28;20024;-78
2021/11/25 05:07:57;;;;;;;7.88;4.93;;;;;;;5.48;100.00;100216.13;5197193;28;20092;-78
2021/11/25 05:10:28;;;;;;;8.82;5.00;;;;;;;5.54;100.00;100212.56;5201119;28;20033;-77
2021/11/25 05:12:58;;;;;;;8.85;5.32;;;;;;;5.53;100.00;100216.88;5201818;28;20028;-77
2021/11/25 05:15:29;;;;;;;8.05;5.10;;;;;;;5.54;100.00;100228.13;5200932;28;20053;-77
2021/11/25 05:17:59;;;;;;;8.18;5.22;;;;;;;5.54;100.00;100220.34;5197290;28;20026;-75
2021/11/25 05:20:30;;;;;;;8.60;5.28;;;;;;;5.50;100.00;100221.25;5200169;28;20084;-77
2021/11/25 05:23:00;;;;;;;8.50;5.55;;;;;;;5.54;100.00;100225.53;5196941;28;20032;-76
2021/11/25 05:25:31;;;;;;;8.57;5.30;;;;;;;5.46;100.00;100219.63;5198294;28;20677;-77
2021/11/25 05:28:01;;;;;;;8.85;5.43;;;;;;;5.54;100.00;100212.56;5196973;28;20499;-77
2021/11/25 05:30:32;;;;;;;8.25;5.32;;;;;;;5.55;100.00;100217.69;5200332;28;20442;-78
2021/11/25 05:33:04;;;;;;;8.85;5.20;;;;;;;5.55;100.00;100215.09;5199822;28;20439;-78
2021/11/25 05:35:34;;;;;;;7.95;5.10;;;;;;;5.49;100.00;100211.78;5205722;28;20036;-78
2021/11/25 05:38:05;;;;;;;8.15;5.32;;;;;;;5.57;100.00;100212.50;5193101;28;20030;-77
2021/11/25 05:40:35;;;;;;;8.27;5.30;;;;;;;5.52;100.00;100210.00;5200623;28;20060;-78
2021/11/25 05:43:06;;;;;;;8.57;5.22;;;;;;;5.66;100.00;100212.28;5199938;28;20034;-76
2021/11/25 05:45:38;;;;;;;10.10;5.10;;;;;;;5.69;100.00;100219.97;5242176;23;20042;-79
2021/11/25 05:48:09;;;;;;;8.07;5.25;;;;;;;5.64;100.00;100224.44;5198498;28;20045;-79
2021/11/25 05:50:39;;;;;;;8.45;4.68;;;;;;;5.59;100.00;100213.31;5201149;28;20032;-79
2021/11/25 05:53:10;;;;;;;8.10;5.15;;;;;;;5.51;100.00;100204.84;5206900;28;20060;-79
2021/11/25 05:55:40;;;;;;;7.97;5.03;;;;;;;5.56;100.00;100198.66;5201768;28;20543;-78
2021/11/25 05:58:11;;;;;;;9.82;5.20;;;;;;;5.54;100.00;100194.44;5197815;28;20049;-79
2021/11/25 06:00:42;;;;;;;9.32;4.97;;;;;;;5.54;100.00;100189.25;5191960;28;20113;-78
2021/11/25 06:03:12;;;;;;;8.00;5.13;;;;;;;5.38;100.00;100192.16;5193150;28;20044;-79
2021/11/25 06:05:42;;;;;;;8.27;5.13;;;;;;;5.41;100.00;100192.97;5202452;28;20025;-79
2021/11/25 06:08:13;;;;;;;8.77;5.13;;;;;;;5.47;100.00;100195.41;5199134;28;20045;-79
2021/11/25 06:10:43;;;;;;;7.97;5.00;;;;;;;5.50;100.00;100187.56;5197960;28;20050;-79
2021/11/25 06:13:14;;;;;;;7.82;4.80;;;;;;;5.55;100.00;100183.16;5201441;28;20313;-79
2021/11/25 06:15:46;;;;;;;7.28;4.85;;;;;;;5.49;100.00;100178.09;5198393;28;20044;-81
2021/11/25 06:18:17;;;;;;;9.65;5.35;;;;;;;5.47;100.00;100183.34;5198180;28;20026;-80
2021/11/25 06:20:47;;;;;;;9.00;5.18;;;;;;;5.46;100.00;100175.56;5202890;28;20028;-81
2021/11/25 06:23:20;;;;;;;6.78;4.63;;;;;;;5.37;100.00;100173.19;5202384;28;20026;-80
2021/11/25 06:25:50;;;;;;;7.57;4.75;;;;;;;5.54;100.00;100171.09;5203264;28;20029;-80
2021/11/25 06:28:21;;;;;;;7.45;4.65;;;;;;;5.54;100.00;100169.34;5201608;28;20091;-80
2021/11/25 06:30:51;;;;;;;7.97;4.80;;;;;;;5.45;100.00;100182.50;5195052;28;20026;-82
2021/11/25 06:33:22;;;;;;;8.23;4.80;;;;;;;5.35;100.00;100187.91;5192252;28;20510;-80
2021/11/25 06:35:52;;;;;;;7.32;4.38;;;;;;;5.37;100.00;100190.47;5200347;28;20030;-80
2021/11/25 06:38:22;;;;;;;7.80;4.53;;;;;;;5.30;100.00;100187.16;5200097;28;20085;-82
2021/11/25 06:40:53;;;;;;;9.52;5.05;;;;;;;5.34;100.00;100181.00;5203412;28;20021;-81
2021/11/25 06:43:24;;;;;;;8.00;5.10;;;;;;;5.27;100.00;100179.44;5204706;28;20032;-81
2021/11/25 06:45:55;;;;;;;8.00;4.85;;;;;;;5.42;100.00;100174.78;5198014;28;20084;-80
2021/11/25 06:48:25;;;;;;;8.85;5.28;;;;;;;5.34;100.00;100175.00;5196829;28;20017;-81
2021/11/25 06:50:55;;;;;;;10.40;5.32;;;;;;;5.35;100.00;100177.53;5200912;28;20492;-82
2021/11/25 06:53:26;;;;;;;8.65;5.07;;;;;;;5.28;100.00;100170.78;5200528;28;20483;-81
2021/11/25 06:55:56;;;;;;;6.63;4.50;;;;;;;5.28;100.00;100168.19;5200221;28;20025;-81
2021/11/25 06:58:27;;;;;;;7.10;4.65;;;;;;;5.38;100.00;100167.97;5201455;28;20152;-82
2021/11/25 07:01:00;;;;;;;7.90;5.03;;;;;;;5.46;100.00;100173.00;5199079;28;20024;-81
2021/11/25 07:03:33;;;;;;;7.78;4.75;;;;;;;5.41;100.00;100173.06;5203087;28;20023;-80
2021/11/25 07:06:04;;;;;;;8.18;4.78;;;;;;;5.45;100.00;100158.34;5193984;28;20029;-80
2021/11/25 07:08:34;;;;;;;7.45;4.97;;;;;;;5.39;100.00;100163.66;5197392;28;20248;-81
2021/11/25 07:11:05;;;;;;;8.02;4.80;;;;;;;5.38;100.00;100161.09;5198717;28;20056;-80
2021/11/25 07:13:35;;;;;;;9.02;4.90;;;;;;;5.47;100.00;100156.56;5198214;28;20025;-81
2021/11/25 07:16:07;;;;;;;7.60;4.78;;;;;;;5.52;100.00;100162.47;5198883;28;20026;-82
2021/11/25 07:18:37;;;;;;;8.95;5.15;;;;;;;5.51;100.00;100160.78;5191091;28;20022;-81
2021/11/25 07:21:08;;;;;;;8.10;5.18;;;;;;;5.55;100.00;100159.84;5201139;28;20021;-82
2021/11/25 07:23:38;;;;;;;10.60;5.28;;;;;;;5.43;100.00;100154.94;5198400;28;20045;-79
2021/11/25 07:26:09;;;;;;;7.57;4.78;;;;;;;5.43;100.00;100162.69;5201998;28;20036;-81
2021/11/25 07:28:39;;;;;;;9.30;4.95;;;;;;;5.47;100.00;100161.75;5198802;28;20021;-81
2021/11/25 07:31:10;;;;;;;8.93;5.10;;;;;;;5.63;100.00;100161.38;5200446;28;20371;-81
2021/11/25 07:33:41;;;;;;;8.65;4.90;;;;;;;5.66;100.00;100163.03;5200155;28;20037;-82
2021/11/25 07:36:13;;;;;;;7.78;4.70;;;;;;;5.59;100.00;100148.53;5199991;28;20033;-80
2021/11/25 07:38:43;;;;;;;7.93;4.93;;;;;;;5.55;100.00;100147.72;5197374;28;20022;-81
2021/11/25 07:41:14;;;;;;;7.35;4.47;;;;;;;5.54;100.00;100146.03;5200568;28;20033;-82
2021/11/25 07:43:45;;;;;;;8.23;4.95;;;;;;;5.58;100.00;100142.47;5199442;28;20075;-82
2021/11/25 07:46:15;;;;;;;7.95;4.78;;;;;;;5.51;100.00;100147.81;5195856;28;20046;-82
2021/11/25 07:48:47;;;;;;;9.40;4.82;;;;;;;5.48;100.00;100143.56;5192515;28;20446;-81
2021/11/25 07:51:17;;;;;;;6.80;4.53;;;;;;;5.45;100.00;100141.06;5201659;28;20120;-81
2021/11/25 07:53:48;;;;;;;7.40;4.40;;;;;;;5.43;100.00;100139.38;5199870;28;20067;-81
2021/11/25 07:56:18;;;;;;;8.15;4.75;;;;;;;5.41;100.00;100125.59;5200138;28;20035;-81
2021/11/25 07:58:48;;;;;;;8.88;4.72;;;;;;;5.45;100.00;100122.06;5200640;28;20034;-81
2021/11/25 08:01:19;;;;;;;8.05;4.20;;;;;;;5.52;100.00;100127.06;5202665;28;20129;-82
2021/11/25 08:03:49;;;;;;;7.30;4.68;;;;;;;5.59;100.00;100130.38;5199972;28;20025;-81
2021/11/25 08:06:20;;;;;;;8.48;5.10;;;;;;;5.67;100.00;100126.72;5199641;28;20057;-81
2021/11/25 08:08:50;;;;;;;9.30;5.10;;;;;;;5.59;100.00;100120.00;5197315;28;20044;-81
2021/11/25 08:11:20;;;;;;;7.50;4.57;;;;;;;5.59;100.00;100120.00;5205299;28;20030;-81
2021/11/25 08:13:51;;;;;;;7.55;4.80;;;;;;;5.57;100.00;100120.03;5205644;28;20033;-82
2021/11/25 08:16:21;;;;;;;7.30;4.47;;;;;;;5.70;99.89;100120.59;5199361;28;20030;-81
2021/11/25 08:18:51;;;;;;;7.90;4.43;;;;;;;5.68;98.24;100122.38;5196097;28;20033;-80
2021/11/25 08:21:22;;;;;;;7.90;4.43;;;;;;;5.88;97.33;100113.28;5202773;28;20107;-81
2021/11/25 08:23:53;;;;;;;8.05;4.93;;;;;;;5.82;98.55;100116.03;5204787;28;20124;-81
2021/11/25 08:26:23;;;;;;;8.02;4.95;;;;;;;5.76;99.44;100110.94;5203202;28;20018;-80
2021/11/25 08:28:53;;;;;;;8.20;4.60;;;;;;;5.79;100.00;100117.84;5204262;28;20057;-80
2021/11/25 08:31:24;;;;;;;10.10;5.15;;;;;;;5.73;98.30;100113.59;5204176;28;20021;-81
2021/11/25 08:33:54;;;;;;;8.15;4.88;;;;;;;5.72;97.53;100098.09;5204597;28;20029;-80
2021/11/25 08:36:25;;;;;;;9.13;5.22;;;;;;;5.73;99.10;100097.22;5202173;28;20068;-81
2021/11/25 08:38:55;;;;;;;8.43;4.75;;;;;;;5.87;98.24;100095.16;5201217;28;20025;-81
2021/11/25 08:41:27;;;;;;;7.20;4.40;;;;;;;5.78;98.52;100100.53;5206057;28;20036;-81
2021/11/25 08:43:57;;;;;;;8.23;4.63;;;;;;;5.69;97.31;100093.84;5202060;28;20026;-82
2021/11/25 08:46:28;;;;;;;7.68;5.10;;;;;;;5.61;97.39;100092.31;5197835;28;20117;-80
2021/11/25 08:48:59;;;;;;;7.20;4.60;;;;;;;5.76;97.09;100091.97;5196371;28;20025;-81
2021/11/25 08:51:30;;;;;;;6.60;4.13;;;;;;;6.01;96.13;100083.56;5200677;28;20053;-80
2021/11/25 08:54:01;;;;;;;7.25;4.90;;;;;;;6.03;97.33;100081.78;5205153;28;20064;-81
2021/11/25 08:56:32;;;;;;;9.75;4.85;;;;;;;6.00;97.71;100071.50;5202209;28;20410;-81
2021/11/25 08:59:02;;;;;;;8.60;5.00;;;;;;;6.18;97.16;100085.72;5205106;28;20036;-80
2021/11/25 09:01:32;;;;;;;7.22;4.35;;;;;;;6.16;96.21;100075.41;5198000;28;20133;-81
2021/11/25 09:04:03;;;;;;;8.25;5.10;;;;;;;6.08;95.57;100076.50;5205115;28;20033;-81
2021/11/25 09:06:34;;;;;;;7.97;4.55;;;;;;;6.41;92.87;100088.59;5201629;28;20013;-80
2021/11/25 09:09:06;;;;;;;8.43;4.15;;;;;;;6.35;92.71;100081.81;5199250;28;20028;-81
2021/11/25 09:11:37;;;;;;;9.63;4.88;;;;;;;6.17;94.14;100073.66;5210323;28;20097;-82
2021/11/25 09:14:07;;;;;;;11.68;6.70;;;;;;;5.99;94.81;100074.13;5210757;28;20022;-81
2021/11/25 09:16:38;;;;;;;10.00;5.13;;;;;;;5.86;95.07;100080.50;5206062;28;20085;-81
2021/11/25 09:19:09;;;;;;;9.13;5.43;;;;;;;5.83;95.65;100077.97;5204374;28;20024;-81
2021/11/25 09:21:39;;;;;;;10.10;4.80;;;;;;;6.05;95.37;100074.81;5210059;28;20026;-81
2021/11/25 09:24:10;;;;;;;8.98;4.38;;;;;;;6.34;92.64;100082.72;5211721;28;20040;-81
2021/11/25 09:26:40;;;;;;;8.57;5.38;;;;;;;6.45;90.64;100090.22;5208811;28;20094;-81
2021/11/25 09:29:11;;;;;;;6.53;4.43;;;;;;;6.48;91.10;100079.72;5207692;28;20138;-81
2021/11/25 09:31:42;;;;;;;9.02;4.53;;;;;;;6.68;91.23;100078.31;5204448;28;20053;-81
2021/11/25 09:34:12;;;;;;;6.32;4.25;;;;;;;6.79;90.71;100080.59;5207660;28;20032;-81
2021/11/25 09:36:43;;;;;;;7.97;4.45;;;;;;;6.99;88.33;100073.06;5205070;28;20022;-81
2021/11/25 09:39:13;;;;;;;9.15;4.53;;;;;;;6.92;88.71;100074.16;5201371;28;20491;-81
2021/11/25 09:41:44;;;;;;;6.65;4.22;;;;;;;7.25;86.17;100083.56;5199838;28;20297;-81
2021/11/25 09:44:14;;;;;;;6.70;4.28;;;;;;;7.14;85.83;100080.44;5201250;28;20026;-81
2021/11/25 09:46:45;;;;;;;9.18;4.07;;;;;;;7.21;85.41;100076.75;5195026;28;20029;-81
2021/11/25 09:49:16;;;;;;;7.57;4.60;;;;;;;7.25;85.81;100076.59;5198906;28;20037;-81
2021/11/25 09:51:47;;;;;;;8.70;4.70;;;;;;;7.10;86.10;100065.84;5201465;28;20030;-82
2021/11/25 09:54:18;;;;;;;7.47;4.78;;;;;;;7.17;85.75;100068.22;5204729;28;20026;-81
2021/11/25 09:56:49;;;;;;;8.10;5.18;;;;;;;7.25;85.74;100065.38;5211464;28;20049;-81
2021/11/25 09:59:20;;;;;;;10.30;5.57;;;;;;;7.16;85.45;100055.25;5204031;28;20030;-82
2021/11/25 10:01:50;;;;;;;9.30;5.75;;;;;;;7.28;86.40;100064.38;5205998;28;20029;-81
2021/11/25 10:04:21;;;;;;;10.30;6.07;;;;;;;7.32;85.94;100057.34;5199283;28;20083;-82
2021/11/25 10:06:54;;;;;;;8.80;5.70;;;;;;;7.24;86.16;100063.69;5199067;28;20017;-81
2021/11/25 10:09:33;;;;;;;10.50;5.95;;;;;;;7.25;86.46;100057.59;5198343;28;20180;-82
2021/11/25 10:12:35;;;;;;;11.05;6.22;;;;;;;7.32;86.40;100041.75;5196808;28;20025;-82
2021/11/25 10:15:35;;;;;;;9.90;5.72;;;;;;;7.48;86.72;100043.81;5184075;28;20037;-81
2021/11/25 10:18:12;;;;;;;12.48;6.72;;;;;;;7.62;86.49;100045.97;5200494;28;20498;-81
2021/11/25 10:20:52;;;;;;;12.23;6.93;;;;;;;7.38;85.69;100052.78;5198003;28;20080;-81
2021/11/25 10:23:29;;;;;;;14.38;7.30;;;;;;;7.47;86.83;100047.31;5199671;28;20116;-81
2021/11/25 10:26:03;;;;;;;12.80;7.30;;;;;;;7.44;86.15;100047.41;5200659;28;20067;-81
2021/11/25 10:29:06;;;;;;;12.90;7.55;;;;;;;7.39;86.31;100048.44;5198202;28;20014;-80
2021/11/25 10:31:41;;;;;;;15.52;8.40;;;;;;;7.58;86.93;100055.63;5195505;28;20117;-81
2021/11/25 10:34:18;;;;;;;14.20;8.87;;;;;;;7.63;86.52;100047.66;5199411;28;20025;-82
2021/11/25 10:42:32;;;;;;;12.27;7.50;;;;;;;7.72;86.56;100023.97;5197943;28;20029;-82
2021/11/25 10:45:10;;;;;;;12.88;7.40;;;;;;;7.57;86.61;100020.13;5196363;28;20021;-82
2021/11/25 10:47:41;;;;;;;11.93;7.40;;;;;;;7.53;86.59;100010.72;5196629;28;20029;-82
2021/11/25 10:50:15;;;;;;;11.18;7.03;;;;;;;7.39;87.20;100012.06;5198624;28;20033;-82
2021/11/25 10:52:48;;;;;;;12.57;7.47;;;;;;;7.31;87.25;100014.91;5199890;28;20087;-81
2021/11/25 10:55:22;;;;;;;10.45;7.03;;;;;;;7.31;87.74;100024.44;5197188;28;20025;-82
2021/11/25 10:57:57;;;;;;;14.75;7.45;;;;;;;7.36;87.84;100030.34;5203088;28;20516;-81
2021/11/25 11:00:36;;;;;;;10.38;7.05;;;;;;;7.46;87.80;100024.81;5210909;28;20052;-81
2021/11/25 11:03:09;;;;;;;13.13;7.95;;;;;;;7.57;87.95;100027.94;5200009;28;20036;-82
2021/11/25 11:05:47;;;;;;;14.38;7.82;;;;;;;7.69;87.74;100029.28;5201710;28;20032;-83
2021/11/25 11:08:18;;;;;;;14.13;7.80;;;;;;;7.75;87.25;100022.13;5198634;28;20089;-82
2021/11/25 11:10:54;;;;;;;14.80;8.23;;;;;;;7.76;86.50;100022.97;5200057;28;20022;-82
2021/11/25 11:18:56;;;;;;;13.80;8.52;;;;;;;7.63;86.25;100016.47;5205667;28;19921;-82
2021/11/25 11:21:32;;;;;;;14.15;9.38;;;;;;;7.50;87.30;100010.81;5200858;28;20025;-82
2021/11/25 11:24:13;;;;;;;13.95;8.68;;;;;;;7.68;87.31;99999.81;5196893;28;20030;-81
2021/11/25 11:26:46;;;;;;;14.10;9.13;;;;;;;7.60;87.31;100001.84;5201011;28;20056;-82
2021/11/25 11:29:19;;;;;;;14.07;8.65;;;;;;;7.63;86.80;100006.91;5200765;28;20052;-81
2021/11/25 11:31:52;;;;;;;15.55;8.73;;;;;;;7.63;87.58;100006.91;5200068;28;20089;-82
2021/11/25 11:34:24;;;;;;;14.48;9.15;;;;;;;7.45;87.12;100004.06;5200376;28;21177;-83
2021/11/25 11:36:56;;;;;;;14.93;9.48;;;;;;;7.48;87.81;100007.41;5205952;28;20053;-82
2021/11/25 11:39:30;;;;;;;15.10;8.68;;;;;;;7.52;88.66;100003.81;5201639;28;20118;-80
2021/11/25 11:42:04;;;;;;;15.27;8.95;;;;;;;7.34;88.90;100003.56;5201393;28;20642;-82
2021/11/25 11:44:34;;;;;;;14.70;9.15;;;;;;;7.28;89.14;99995.13;5203545;28;20045;-81
2021/11/25 11:47:11;;;;;;;14.35;9.05;;;;;;;7.28;88.34;99991.63;5198076;28;20025;-81
2021/11/25 11:49:44;;;;;;;14.23;9.38;;;;;;;7.38;88.97;99985.22;5199389;28;20022;-81
2021/11/25 11:52:23;;;;;;;15.55;9.50;;;;;;;7.43;88.49;99980.72;5200956;28;20026;-81
2021/11/25 11:54:57;;;;;;;17.17;9.05;;;;;;;7.60;88.23;99970.63;5209417;28;20029;-81
2021/11/25 11:57:28;;;;;;;14.57;8.55;;;;;;;7.37;87.25;99970.50;5200944;28;20550;-81
2021/11/25 12:00:20;;;;;;;14.75;8.98;;;;;;;7.28;89.31;99967.34;5194016;28;20053;-82
2021/11/25 12:02:54;;;;;;;14.32;8.95;;;;;;;7.57;88.91;99968.13;5202335;28;20450;-81
2021/11/25 12:05:49;;;;;;;14.85;8.52;;;;;;;7.29;87.04;99959.53;5198586;28;20045;-81